Time;durP1;ratioP1;P1;durP2;ratioP2;P2;SDS_P1;SDS_P2;PMS_P1;PMS_P2;Temp;Humidity;BMP_temperature;BMP_pressure;BME280_temperature;BME280_humidity;BME280_pressure;Samples;Min_cycle;Max_cycle;Signal;HPM_P1;HPM_P2
2022/06/16 00:01:01;;;;;;;2.30;1.88;;;21.80;51.70;;;;;;5052502;28;20218;-68
2022/06/16 00:03:26;;;;;;;2.50;2.25;;;21.80;51.60;;;;;;5052190;28;20594;-68
2022/06/16 00:05:52;;;;;;;2.03;1.83;;;21.80;51.60;;;;;;5052524;28;20171;-68
2022/06/16 00:08:18;;;;;;;2.08;1.88;;;21.80;51.50;;;;;;5052917;28;20175;-67
2022/06/16 00:13:29;;;;;;;2.10;1.98;;;21.80;51.50;;;;;;5052663;28;20591;-70
2022/06/16 00:15:55;;;;;;;2.15;2.00;;;21.80;51.50;;;;;;5052330;28;20187;-70
2022/06/16 00:18:20;;;;;;;2.20;2.00;;;21.70;51.80;;;;;;5051833;28;20673;-70
2022/06/16 00:20:46;;;;;;;2.60;1.80;;;21.70;51.30;;;;;;5052106;28;20171;-69
2022/06/16 00:23:11;;;;;;;2.25;2.05;;;21.70;51.30;;;;;;5052498;28;20182;-71
2022/06/16 00:25:37;;;;;;;2.22;2.03;;;21.70;51.40;;;;;;5051587;28;20171;-70
2022/06/16 00:28:02;;;;;;;2.50;2.30;;;21.70;51.40;;;;;;5052403;28;20179;-69
2022/06/16 00:30:28;;;;;;;2.22;2.03;;;21.70;51.20;;;;;;5051881;28;20647;-70
2022/06/16 00:32:53;;;;;;;2.30;1.80;;;21.70;51.20;;;;;;5052373;28;20792;-67
2022/06/16 00:35:19;;;;;;;3.08;2.20;;;21.70;51.30;;;;;;5052442;28;20560;-68
2022/06/16 00:37:45;;;;;;;2.47;2.28;;;21.70;51.30;;;;;;5051398;28;20171;-68
2022/06/16 00:40:11;;;;;;;1.98;1.83;;;21.70;51.20;;;;;;5052327;28;20229;-68
2022/06/16 00:42:36;;;;;;;3.10;1.95;;;21.70;51.20;;;;;;5052220;28;20218;-69
2022/06/16 00:45:02;;;;;;;2.42;2.20;;;21.70;51.20;;;;;;5051670;28;20167;-69
2022/06/16 00:47:29;;;;;;;2.88;2.10;;;21.70;51.20;;;;;;5052410;28;20181;-69
2022/06/16 00:49:57;;;;;;;2.33;2.13;;;21.70;51.20;;;;;;5052166;28;20637;-69
2022/06/16 00:52:25;;;;;;;2.55;2.00;;;21.60;51.20;;;;;;5034020;28;20176;-69
2022/06/16 00:55:03;;;;;;;2.65;2.00;;;21.70;51.20;;;;;;5051999;28;20183;-70
2022/06/16 00:57:37;;;;;;;2.28;2.08;;;21.70;51.10;;;;;;5050998;28;20526;-69
2022/06/16 01:00:07;;;;;;;2.38;2.10;;;21.60;50.90;;;;;;5050307;28;20179;-68
2022/06/16 01:02:33;;;;;;;2.90;2.55;;;21.60;51.30;;;;;;5050964;28;20214;-67
2022/06/16 01:04:58;;;;;;;2.10;1.95;;;21.60;51.00;;;;;;5051906;28;20703;-68
2022/06/16 01:07:38;;;;;;;3.05;2.13;;;21.60;51.20;;;;;;5051410;28;20175;-68
2022/06/16 01:10:04;;;;;;;2.70;2.30;;;21.60;50.90;;;;;;5037129;28;20237;-69
2022/06/16 01:15:49;;;;;;;2.05;1.88;;;21.60;50.90;;;;;;5054586;28;20325;-71
2022/06/16 01:18:54;;;;;;;3.60;2.30;;;21.60;50.80;;;;;;5054544;28;20721;-70
2022/06/16 01:21:37;;;;;;;2.10;1.95;;;21.60;50.80;;;;;;5054469;28;20210;-71
2022/06/16 01:24:31;;;;;;;2.13;1.92;;;21.60;50.90;;;;;;5055336;28;20185;-71
2022/06/16 01:27:42;;;;;;;2.28;2.10;;;21.60;50.80;;;;;;5043276;28;20269;-70
2022/06/16 01:30:08;;;;;;;2.50;2.30;;;21.60;50.70;;;;;;5046935;28;20260;-68
2022/06/16 01:32:54;;;;;;;2.67;2.00;;;21.60;50.70;;;;;;5054128;28;20175;-68
2022/06/16 01:35:39;;;;;;;2.30;2.05;;;21.50;50.60;;;;;;5054829;28;20175;-69
2022/06/16 01:38:29;;;;;;;2.78;2.25;;;21.50;50.50;;;;;;5055205;28;20179;-68
2022/06/16 01:41:26;;;;;;;2.15;1.95;;;21.50;50.50;;;;;;5054112;28;20179;-70
2022/06/16 01:44:11;;;;;;;2.35;2.20;;;21.50;50.50;;;;;;5038661;28;20187;-69
2022/06/16 01:46:38;;;;;;;2.33;2.13;;;21.50;50.50;;;;;;5053765;28;20646;-70
2022/06/16 01:49:12;;;;;;;2.42;2.30;;;21.50;50.50;;;;;;5036539;28;20175;-71
2022/06/16 01:51:44;;;;;;;2.38;1.92;;;21.50;50.50;;;;;;5053891;28;20171;-69
2022/06/16 01:54:16;;;;;;;3.40;2.40;;;21.50;50.70;;;;;;5038066;28;20181;-70
2022/06/16 01:56:51;;;;;;;2.45;2.22;;;21.50;50.60;;;;;;5054040;28;20175;-71
2022/06/16 01:59:33;;;;;;;2.95;1.85;;;21.50;50.60;;;;;;5054932;28;20170;-69
2022/06/16 02:02:04;;;;;;;2.28;2.00;;;21.50;50.70;;;;;;5052816;28;20225;-69
2022/06/16 02:04:33;;;;;;;2.13;1.92;;;21.50;50.50;;;;;;5053480;28;20227;-69
2022/06/16 02:07:01;;;;;;;2.33;2.20;;;21.40;50.50;;;;;;5036943;28;20171;-69
2022/06/16 02:09:28;;;;;;;2.30;2.10;;;21.50;50.70;;;;;;5052868;28;20263;-69
2022/06/16 02:11:55;;;;;;;3.05;2.20;;;21.50;50.60;;;;;;5036759;28;20185;-71
2022/06/16 02:14:34;;;;;;;2.67;1.95;;;21.40;50.50;;;;;;5053348;28;20190;-72
2022/06/16 02:16:59;;;;;;;2.42;2.08;;;21.40;50.50;;;;;;5054008;28;20182;-72
2022/06/16 02:19:25;;;;;;;2.42;2.20;;;21.40;50.50;;;;;;5036666;28;20661;-71
2022/06/16 02:21:51;;;;;;;4.05;2.13;;;21.40;50.60;;;;;;5053794;28;20297;-73
2022/06/16 02:24:18;;;;;;;1.90;1.80;;;21.40;50.50;;;;;;5051732;28;20171;-71
2022/06/16 02:26:43;;;;;;;3.05;2.45;;;21.40;50.50;;;;;;5052108;28;20194;-71
2022/06/16 02:29:21;;;;;;;2.60;2.40;;;21.40;50.60;;;;;;5053557;28;20179;-71
2022/06/16 02:31:52;;;;;;;2.70;2.13;;;21.40;50.60;;;;;;5052528;28;20688;-69
2022/06/16 02:34:39;;;;;;;2.28;2.08;;;21.40;50.60;;;;;;5036188;28;20547;-69
2022/06/16 02:37:23;;;;;;;4.22;2.38;;;21.30;50.40;;;;;;5052707;28;20704;-69
2022/06/16 02:40:11;;;;;;;3.08;2.85;;;21.30;50.40;;;;;;5051975;28;20691;-68
2022/06/16 02:42:55;;;;;;;2.42;2.22;;;21.30;50.40;;;;;;5053301;28;20218;-69
2022/06/16 02:45:26;;;;;;;2.67;2.30;;;21.30;50.40;;;;;;5052581;28;20258;-70
2022/06/16 02:48:07;;;;;;;2.55;2.35;;;21.40;50.40;;;;;;5051857;28;20707;-69
2022/06/16 02:50:49;;;;;;;3.08;2.55;;;21.30;50.50;;;;;;5053367;28;20262;-70
2022/06/16 02:53:37;;;;;;;2.83;2.33;;;21.30;50.50;;;;;;5051581;28;20179;-70
2022/06/16 02:56:07;;;;;;;3.58;2.33;;;21.30;50.40;;;;;;5036924;28;20182;-70
2022/06/16 02:58:33;;;;;;;2.80;2.47;;;21.30;50.30;;;;;;5051442;28;20178;-70
2022/06/16 03:00:58;;;;;;;2.42;2.22;;;21.30;50.40;;;;;;5034944;28;20538;-69
2022/06/16 03:03:29;;;;;;;3.13;2.20;;;21.30;50.40;;;;;;5035010;28;20215;-68
2022/06/16 03:05:57;;;;;;;2.78;2.30;;;21.30;50.40;;;;;;5052093;28;20183;-68
2022/06/16 03:08:23;;;;;;;2.50;2.20;;;21.30;50.40;;;;;;5052978;28;20190;-68
2022/06/16 03:10:52;;;;;;;2.75;2.55;;;21.30;50.40;;;;;;5052818;28;20175;-71
2022/06/16 03:13:22;;;;;;;2.20;2.00;;;21.30;50.40;;;;;;5052314;28;20254;-72
2022/06/16 03:15:48;;;;;;;2.55;2.30;;;21.20;50.30;;;;;;5052706;28;20171;-71
2022/06/16 03:18:14;;;;;;;2.67;2.42;;;21.20;50.30;;;;;;5052792;28;20596;-71
2022/06/16 03:20:39;;;;;;;3.40;2.65;;;21.20;50.20;;;;;;5050739;28;20646;-72
2022/06/16 03:23:05;;;;;;;3.13;2.25;;;21.20;50.30;;;;;;5052487;28;20207;-71
2022/06/16 03:25:31;;;;;;;2.67;2.42;;;21.20;50.30;;;;;;5053012;28;20340;-71
2022/06/16 03:27:57;;;;;;;2.50;2.30;;;21.20;50.30;;;;;;5050552;28;20542;-71
2022/06/16 03:30:23;;;;;;;3.05;2.08;;;21.20;50.30;;;;;;5052665;28;20254;-70
2022/06/16 03:32:48;;;;;;;2.78;2.20;;;21.20;50.30;;;;;;5051537;28;20186;-69
2022/06/16 03:35:14;;;;;;;4.47;2.63;;;21.20;50.20;;;;;;5051638;28;20178;-69
2022/06/16 03:37:41;;;;;;;3.38;2.35;;;21.20;50.30;;;;;;5052449;28;20190;-68
2022/06/16 03:40:08;;;;;;;3.90;2.35;;;21.20;50.20;;;;;;5052622;28;20175;-69
2022/06/16 03:42:33;;;;;;;2.00;1.80;;;21.20;50.20;;;;;;5051619;28;20261;-70
2022/06/16 03:44:59;;;;;;;2.42;2.20;;;21.20;50.30;;;;;;5052233;28;20578;-69
2022/06/16 03:47:24;;;;;;;1.98;1.83;;;21.20;50.20;;;;;;5051721;28;20212;-71
2022/06/16 03:49:50;;;;;;;2.38;2.05;;;21.20;50.30;;;;;;5052048;28;20174;-69
2022/06/16 03:52:16;;;;;;;2.42;2.20;;;21.20;50.30;;;;;;5052235;28;20267;-70
2022/06/16 03:54:41;;;;;;;3.45;2.60;;;21.20;50.30;;;;;;5051369;28;20231;-72
2022/06/16 03:57:07;;;;;;;2.42;2.22;;;21.20;50.10;;;;;;5052339;28;20254;-71
2022/06/16 03:59:32;;;;;;;3.03;2.22;;;21.20;50.10;;;;;;5052217;28;20198;-69
2022/06/16 04:01:58;;;;;;;2.65;2.45;;;21.20;50.10;;;;;;5050918;28;20218;-68
2022/06/16 04:04:23;;;;;;;2.63;2.20;;;21.20;50.20;;;;;;5051955;28;20625;-68
2022/06/16 04:06:51;;;;;;;4.25;2.17;;;21.20;50.20;;;;;;5051658;28;20214;-68
2022/06/16 04:09:17;;;;;;;3.28;2.53;;;21.20;50.20;;;;;;5051447;28;20210;-69
2022/06/16 04:11:42;;;;;;;3.60;2.17;;;21.20;50.00;;;;;;5051724;28;20626;-70
2022/06/16 04:14:10;;;;;;;3.25;2.40;;;21.20;50.10;;;;;;5052054;28;20168;-70
2022/06/16 04:16:38;;;;;;;2.83;2.47;;;21.20;50.10;;;;;;5051009;28;20179;-71
2022/06/16 04:19:03;;;;;;;3.20;2.78;;;21.20;50.00;;;;;;5051777;28;20201;-71
2022/06/16 04:21:29;;;;;;;3.42;2.22;;;21.10;50.00;;;;;;5051701;28;20307;-69
2022/06/16 04:23:54;;;;;;;3.20;2.05;;;21.10;50.10;;;;;;5050736;28;20221;-70
2022/06/16 04:26:20;;;;;;;2.40;2.20;;;21.10;50.20;;;;;;5052025;28;20327;-70
2022/06/16 04:28:46;;;;;;;2.88;2.30;;;21.10;50.20;;;;;;5051630;28;20213;-70
2022/06/16 04:31:11;;;;;;;3.47;2.33;;;21.10;50.30;;;;;;5051148;28;20646;-70
2022/06/16 04:33:37;;;;;;;2.58;2.10;;;21.10;50.30;;;;;;5051293;28;20179;-69
2022/06/16 04:36:03;;;;;;;4.07;2.50;;;21.10;50.30;;;;;;5051443;28;20263;-69
2022/06/16 04:38:29;;;;;;;2.78;2.35;;;21.10;50.30;;;;;;5050815;28;20179;-69
2022/06/16 04:40:54;;;;;;;2.30;2.10;;;21.10;50.30;;;;;;5051341;28;20178;-70
2022/06/16 04:43:20;;;;;;;2.47;2.28;;;21.10;50.40;;;;;;5053310;28;20616;-70
2022/06/16 04:45:45;;;;;;;3.08;2.20;;;21.10;50.40;;;;;;5054730;28;20191;-70
2022/06/16 04:48:11;;;;;;;2.30;2.10;;;21.10;50.40;;;;;;5055428;28;20175;-69
2022/06/16 04:50:37;;;;;;;3.50;2.10;;;21.10;50.30;;;;;;5054888;28;20186;-70
2022/06/16 04:53:03;;;;;;;2.67;2.42;;;21.10;50.50;;;;;;5055498;28;20512;-71
2022/06/16 04:55:29;;;;;;;3.05;2.13;;;21.10;50.40;;;;;;5055500;28;20179;-71
2022/06/16 04:57:54;;;;;;;2.63;2.20;;;21.10;50.30;;;;;;5054727;28;20190;-70
2022/06/16 05:00:20;;;;;;;2.83;2.10;;;21.10;50.40;;;;;;5055403;28;20177;-69
2022/06/16 05:02:45;;;;;;;3.05;2.17;;;21.10;50.40;;;;;;5054657;28;20218;-68
2022/06/16 05:05:11;;;;;;;2.83;1.90;;;21.20;50.40;;;;;;5054529;28;20256;-67
2022/06/16 05:07:36;;;;;;;2.17;1.98;;;21.20;50.40;;;;;;5055138;28;20171;-69
2022/06/16 05:10:02;;;;;;;3.03;2.40;;;21.20;50.40;;;;;;5054924;28;20606;-71
2022/06/16 05:12:28;;;;;;;2.08;1.88;;;21.20;50.40;;;;;;5054449;28;20733;-70
2022/06/16 05:14:53;;;;;;;2.13;1.63;;;21.20;50.60;;;;;;5054853;28;20171;-71
2022/06/16 05:17:19;;;;;;;2.28;2.08;;;21.20;50.50;;;;;;5055011;28;20179;-71
2022/06/16 05:19:44;;;;;;;4.20;2.47;;;21.20;50.40;;;;;;5053888;28;20163;-71
2022/06/16 05:22:10;;;;;;;2.67;2.25;;;21.20;50.50;;;;;;5055045;28;20229;-71
2022/06/16 05:24:35;;;;;;;2.50;1.92;;;21.20;51.20;;;;;;5054808;28;20525;-70
2022/06/16 05:27:03;;;;;;;2.42;2.00;;;21.20;50.60;;;;;;5054080;28;20171;-70
2022/06/16 05:29:29;;;;;;;4.20;2.08;;;21.20;50.60;;;;;;5054958;28;20262;-69
2022/06/16 05:31:55;;;;;;;3.83;2.10;;;21.20;50.60;;;;;;5054517;28;20257;-68
2022/06/16 05:34:21;;;;;;;2.75;2.05;;;21.20;50.70;;;;;;5054317;28;20179;-67
2022/06/16 05:36:47;;;;;;;2.53;1.88;;;21.20;50.80;;;;;;5054282;28;20175;-68
2022/06/16 05:39:13;;;;;;;2.90;2.10;;;21.20;50.80;;;;;;5054738;28;20171;-68
2022/06/16 05:41:39;;;;;;;2.70;1.95;;;21.20;50.80;;;;;;5053695;28;20578;-68
2022/06/16 05:44:05;;;;;;;1.85;1.67;;;21.20;50.90;;;;;;5054525;28;20179;-68
2022/06/16 05:46:30;;;;;;;1.90;1.80;;;21.20;50.90;;;;;;5054576;28;20179;-68
2022/06/16 05:48:56;;;;;;;2.80;1.80;;;21.20;50.90;;;;;;5053494;28;20168;-69
2022/06/16 05:51:24;;;;;;;2.90;2.10;;;21.20;50.90;;;;;;5054777;28;20206;-69
2022/06/16 05:53:50;;;;;;;2.97;2.00;;;21.20;50.90;;;;;;5054080;28;20720;-70
2022/06/16 05:56:16;;;;;;;3.35;1.77;;;21.20;51.00;;;;;;5053095;28;20213;-69
2022/06/16 05:58:41;;;;;;;3.60;2.25;;;21.20;51.10;;;;;;5054120;28;20175;-69
2022/06/16 06:01:08;;;;;;;2.47;1.95;;;21.20;51.10;;;;;;5053534;28;20179;-68
2022/06/16 06:03:33;;;;;;;2.58;2.00;;;21.20;51.10;;;;;;5053918;28;20227;-67
2022/06/16 06:05:59;;;;;;;3.50;2.00;;;21.20;51.10;;;;;;5053834;28;20267;-67
2022/06/16 06:16:43;;;;;;;2.47;1.80;;;21.20;51.30;;;;;;5051983;28;20182;-71
2022/06/16 06:19:23;;;;;;;1.58;1.48;;;21.20;51.30;;;;;;5053846;28;20175;-70
2022/06/16 06:22:13;;;;;;;2.38;1.70;;;21.30;51.30;;;;;;5053438;28;20687;-70
2022/06/16 06:24:43;;;;;;;1.85;1.63;;;21.30;51.30;;;;;;5053869;28;20171;-69
2022/06/16 06:27:33;;;;;;;1.88;1.70;;;21.30;51.30;;;;;;5053770;28;20174;-70
2022/06/16 06:29:59;;;;;;;2.22;1.50;;;21.30;51.40;;;;;;5035640;28;20175;-70
2022/06/16 06:32:25;;;;;;;2.25;1.65;;;21.30;51.30;;;;;;5053478;28;20178;-69
2022/06/16 06:34:51;;;;;;;1.70;1.60;;;21.30;51.40;;;;;;5053272;28;20273;-70
2022/06/16 06:37:18;;;;;;;1.40;1.30;;;21.30;51.30;;;;;;5052996;28;20179;-70
2022/06/16 06:39:44;;;;;;;2.10;1.90;;;21.30;51.40;;;;;;5053127;28;20206;-69
2022/06/16 06:42:09;;;;;;;1.50;1.40;;;21.30;51.30;;;;;;5053554;28;20665;-69
2022/06/16 06:44:35;;;;;;;2.03;1.45;;;21.30;51.40;;;;;;5052521;28;20262;-70
2022/06/16 06:47:01;;;;;;;2.03;1.52;;;21.30;51.40;;;;;;5053294;28;20546;-69
2022/06/16 06:49:26;;;;;;;1.70;1.45;;;21.30;51.40;;;;;;5053345;28;20179;-70
2022/06/16 06:51:52;;;;;;;2.00;1.73;;;21.30;51.40;;;;;;5052025;28;20179;-69
2022/06/16 06:54:20;;;;;;;2.50;1.55;;;21.30;51.40;;;;;;5053333;28;20175;-70
2022/06/16 06:56:46;;;;;;;1.67;1.58;;;21.30;51.40;;;;;;5053023;28;20183;-71
2022/06/16 06:59:18;;;;;;;2.25;1.63;;;21.30;51.50;;;;;;5034725;28;20233;-70
2022/06/16 07:01:44;;;;;;;1.50;1.40;;;21.30;51.50;;;;;;5051471;28;20237;-68
2022/06/16 07:04:10;;;;;;;2.10;1.40;;;21.30;51.50;;;;;;5053023;28;20227;-68
2022/06/16 07:06:36;;;;;;;2.28;1.80;;;21.30;51.60;;;;;;5051260;28;20167;-68
2022/06/16 07:09:01;;;;;;;1.63;1.50;;;21.30;51.60;;;;;;5051756;28;20178;-70
2022/06/16 07:11:27;;;;;;;1.45;1.35;;;21.30;51.70;;;;;;5052074;28;20182;-69
2022/06/16 07:13:53;;;;;;;1.80;1.48;;;21.40;51.80;;;;;;5052603;28;20180;-70
2022/06/16 07:16:19;;;;;;;1.42;1.15;;;21.40;51.80;;;;;;5052828;28;20294;-70
2022/06/16 07:18:45;;;;;;;3.10;1.88;;;21.40;51.70;;;;;;5033982;28;20182;-70
2022/06/16 07:21:11;;;;;;;1.77;1.52;;;21.40;51.70;;;;;;5052771;28;20179;-72
2022/06/16 07:23:36;;;;;;;2.33;1.40;;;21.40;51.70;;;;;;5052466;28;20639;-69
2022/06/16 07:26:02;;;;;;;1.60;1.50;;;21.40;51.70;;;;;;5051960;28;20185;-70
2022/06/16 07:28:27;;;;;;;1.80;1.15;;;21.40;51.60;;;;;;5052613;28;20186;-70
2022/06/16 07:30:53;;;;;;;1.92;1.50;;;21.40;51.60;;;;;;5052141;28;20175;-68
2022/06/16 07:33:19;;;;;;;1.95;1.40;;;21.40;51.60;;;;;;5052063;28;20175;-68
2022/06/16 07:35:44;;;;;;;1.25;1.15;;;21.50;51.70;;;;;;5052126;28;20684;-68
2022/06/16 07:38:13;;;;;;;1.70;1.60;;;21.50;51.70;;;;;;5052624;28;20170;-68
2022/06/16 07:40:39;;;;;;;1.60;1.50;;;21.50;51.70;;;;;;5051567;28;20281;-68
2022/06/16 07:43:05;;;;;;;1.50;1.40;;;21.50;51.70;;;;;;5052209;28;20304;-68
2022/06/16 07:45:30;;;;;;;1.38;1.20;;;21.50;51.70;;;;;;5052317;28;20250;-68
2022/06/16 07:47:57;;;;;;;1.40;1.25;;;21.50;51.70;;;;;;5051261;28;20533;-68
2022/06/16 07:50:23;;;;;;;1.77;1.40;;;21.50;51.70;;;;;;5052449;28;20186;-68
2022/06/16 07:52:49;;;;;;;2.17;1.48;;;21.60;51.80;;;;;;5051985;28;20179;-68
2022/06/16 07:55:14;;;;;;;1.20;1.00;;;21.60;51.80;;;;;;5051508;28;20194;-69
2022/06/16 07:57:45;;;;;;;2.10;1.30;;;21.50;51.70;;;;;;5051873;28;20266;-71
2022/06/16 08:00:12;;;;;;;2.45;1.25;;;21.60;52.00;;;;;;5052207;28;20198;-66
2022/06/16 08:02:37;;;;;;;2.28;1.45;;;21.60;52.10;;;;;;5050961;28;20678;-71
2022/06/16 08:05:04;;;;;;;2.05;1.52;;;21.60;51.90;;;;;;5052198;28;20188;-69
2022/06/16 08:07:29;;;;;;;1.92;1.30;;;21.70;51.90;;;;;;5052186;28;20709;-72
2022/06/16 08:09:55;;;;;;;2.47;1.40;;;21.60;51.80;;;;;;5051113;28;20281;-74
2022/06/16 08:12:20;;;;;;;1.90;1.42;;;21.60;51.90;;;;;;5051937;28;20209;-73
2022/06/16 08:14:46;;;;;;;2.58;1.33;;;21.60;52.00;;;;;;5051109;28;20186;-74
2022/06/16 08:17:15;;;;;;;4.30;1.90;;;21.70;52.10;;;;;;5052205;28;20180;-74
2022/06/16 08:19:41;;;;;;;1.45;1.00;;;21.70;52.00;;;;;;5055713;28;20337;-74
2022/06/16 08:22:06;;;;;;;2.03;1.25;;;21.70;52.00;;;;;;5055579;28;20217;-74
2022/06/16 08:24:32;;;;;;;1.08;1.08;;;21.70;52.00;;;;;;5056018;28;20171;-76
2022/06/16 08:26:58;;;;;;;1.92;1.60;;;21.70;51.90;;;;;;5055706;28;20249;-74
2022/06/16 08:29:25;;;;;;;1.58;1.20;;;21.70;51.90;;;;;;5054216;28;20680;-76
2022/06/16 08:31:50;;;;;;;2.47;1.40;;;21.80;51.90;;;;;;5055621;28;20269;-72
2022/06/16 08:34:16;;;;;;;2.50;1.38;;;21.80;51.90;;;;;;5055880;28;20254;-74
2022/06/16 08:36:41;;;;;;;3.10;1.10;;;21.80;51.90;;;;;;5054866;28;20175;-74
2022/06/16 08:39:07;;;;;;;3.08;1.10;;;21.80;51.90;;;;;;5055699;28;20175;-74
2022/06/16 08:41:52;;;;;;;2.58;1.20;;;21.80;51.80;;;;;;5055526;28;20214;-73
2022/06/16 08:44:49;;;;;;;2.58;1.42;;;21.80;51.80;;;;;;5055341;28;20171;-77
2022/06/16 08:47:42;;;;;;;1.27;1.10;;;21.90;51.80;;;;;;5055163;28;20180;-76
2022/06/16 08:50:07;;;;;;;4.43;1.10;;;21.90;51.80;;;;;;5053579;28;20190;-76
2022/06/16 08:53:18;;;;;;;1.90;1.42;;;21.90;51.70;;;;;;5055539;28;20167;-76
2022/06/16 08:55:57;;;;;;;2.45;1.50;;;22.00;51.80;;;;;;5055035;28;20179;-77
2022/06/16 08:58:31;;;;;;;2.92;0.95;;;22.00;51.80;;;;;;5037396;28;20198;-77
2022/06/16 09:01:10;;;;;;;2.35;1.20;;;22.00;51.90;;;;;;5053921;28;20181;-76
2022/06/16 09:03:40;;;;;;;1.70;1.23;;;22.10;51.80;;;;;;5037379;28;20759;-76
2022/06/16 09:06:17;;;;;;;2.00;1.15;;;22.10;51.80;;;;;;5053248;28;20175;-76
2022/06/16 09:08:53;;;;;;;1.98;1.10;;;22.10;51.90;;;;;;5053602;28;20221;-75
2022/06/16 09:11:38;;;;;;;1.52;1.10;;;22.20;51.90;;;;;;5036718;28;20206;-74
2022/06/16 09:15:10;;;;;;;1.23;1.10;;;22.10;51.90;;;;;;5037507;28;20179;-75
2022/06/16 09:17:13;;;;;;;3.08;1.30;;;22.10;51.90;;;;;;5054655;28;20653;-74
2022/06/16 09:19:57;;;;;;;2.97;1.50;;;22.10;52.00;;;;;;5036973;28;20221;-73
2022/06/16 09:22:50;;;;;;;2.22;1.23;;;22.10;52.00;;;;;;5054628;28;20248;-73
2022/06/16 09:25:35;;;;;;;2.28;1.33;;;22.10;52.00;;;;;;5053035;28;20217;-74
2022/06/16 09:28:18;;;;;;;2.97;1.25;;;22.20;52.20;;;;;;5054850;28;20194;-74
2022/06/16 09:30:43;;;;;;;2.63;1.20;;;22.20;52.20;;;;;;5036241;28;20701;-75
2022/06/16 09:33:18;;;;;;;1.95;1.27;;;22.20;52.20;;;;;;5054062;28;20271;-73
2022/06/16 09:35:58;;;;;;;1.58;1.48;;;22.20;52.30;;;;;;5054257;28;20614;-75
2022/06/16 09:38:43;;;;;;;3.25;1.50;;;22.20;52.30;;;;;;5038090;28;20254;-74
2022/06/16 09:44:02;;;;;;;1.75;1.33;;;22.30;52.10;;;;;;5039713;28;20198;-76
2022/06/16 09:46:33;;;;;;;1.73;1.13;;;22.30;52.20;;;;;;5036350;28;20258;-75
2022/06/16 09:49:00;;;;;;;3.58;1.30;;;22.20;52.10;;;;;;5036904;28;20208;-76
2022/06/16 09:51:42;;;;;;;2.38;1.40;;;22.20;52.10;;;;;;5053103;28;20179;-76
2022/06/16 09:54:22;;;;;;;3.67;1.38;;;22.30;52.10;;;;;;5052356;28;20198;-76
2022/06/16 09:56:55;;;;;;;1.98;1.20;;;22.30;52.10;;;;;;5036993;28;20175;-74
2022/06/16 09:59:27;;;;;;;2.97;1.13;;;22.30;52.10;;;;;;5053006;28;20256;-73
2022/06/16 10:01:58;;;;;;;1.40;1.20;;;22.30;52.00;;;;;;5051934;28;20330;-73
2022/06/16 10:04:24;;;;;;;1.30;1.20;;;22.30;52.00;;;;;;5036405;28;20252;-73
2022/06/16 10:07:30;;;;;;;2.13;1.40;;;22.30;51.90;;;;;;5053905;28;20268;-73
2022/06/16 10:10:05;;;;;;;2.13;1.40;;;22.30;51.90;;;;;;5039199;28;20179;-75
2022/06/16 10:12:48;;;;;;;1.80;1.35;;;22.30;51.90;;;;;;5054080;28;20171;-74
2022/06/16 10:15:35;;;;;;;1.90;1.35;;;22.40;52.00;;;;;;5053105;28;20178;-74
2022/06/16 10:18:00;;;;;;;2.15;1.33;;;22.40;52.00;;;;;;5052507;28;20667;-74
2022/06/16 10:20:26;;;;;;;2.85;1.20;;;22.40;52.00;;;;;;5054081;28;20183;-75
2022/06/16 10:22:56;;;;;;;2.05;1.40;;;22.40;52.00;;;;;;5034905;28;20230;-75
2022/06/16 10:25:28;;;;;;;2.35;1.23;;;22.40;52.10;;;;;;5036404;28;20537;-75
2022/06/16 10:28:18;;;;;;;3.33;1.42;;;22.40;52.10;;;;;;5035703;28;20266;-75
2022/06/16 10:30:44;;;;;;;1.83;1.50;;;22.40;52.10;;;;;;5052005;28;20637;-75
2022/06/16 10:33:11;;;;;;;1.40;1.30;;;22.40;52.10;;;;;;5052475;28;20188;-75
2022/06/16 10:35:36;;;;;;;1.63;1.20;;;22.40;52.10;;;;;;5052656;28;20266;-74
2022/06/16 10:38:02;;;;;;;4.10;1.40;;;22.40;52.80;;;;;;5052096;28;20691;-72
2022/06/16 10:40:36;;;;;;;2.00;1.27;;;22.50;52.10;;;;;;5053202;28;20263;-72
2022/06/16 10:43:10;;;;;;;1.63;1.50;;;22.50;52.10;;;;;;5051384;28;20272;-73
2022/06/16 10:45:36;;;;;;;3.05;1.42;;;22.50;52.00;;;;;;5035759;28;20171;-74
2022/06/16 10:48:18;;;;;;;2.13;1.40;;;22.50;52.00;;;;;;5053271;28;20524;-72
2022/06/16 10:50:47;;;;;;;3.67;1.40;;;22.50;52.00;;;;;;5051092;28;20177;-71
2022/06/16 10:53:21;;;;;;;2.08;1.30;;;22.60;52.00;;;;;;5053104;28;20548;-75
2022/06/16 10:55:47;;;;;;;3.95;1.60;;;22.60;51.90;;;;;;5051939;28;20203;-74
2022/06/16 10:58:24;;;;;;;2.90;1.30;;;22.60;51.90;;;;;;5052619;28;20214;-73
2022/06/16 11:01:06;;;;;;;1.83;1.27;;;22.50;51.90;;;;;;5052840;28;20539;-72
2022/06/16 11:03:40;;;;;;;5.70;1.40;;;22.60;52.00;;;;;;5052286;28;20239;-72
2022/06/16 11:06:07;;;;;;;2.88;1.58;;;22.60;52.00;;;;;;5053363;28;20171;-72
2022/06/16 11:08:37;;;;;;;1.77;1.08;;;22.60;52.00;;;;;;5035623;28;20178;-75
2022/06/16 11:11:03;;;;;;;1.63;1.02;;;22.60;52.00;;;;;;5050947;28;20178;-76
2022/06/16 11:13:37;;;;;;;3.22;1.33;;;22.60;52.00;;;;;;5051642;28;20171;-75
2022/06/16 11:16:11;;;;;;;3.97;1.40;;;22.60;52.00;;;;;;5036275;28;20179;-77
2022/06/16 11:18:37;;;;;;;5.25;1.73;;;22.60;52.00;;;;;;5050706;28;20702;-73
2022/06/16 11:21:12;;;;;;;5.93;1.77;;;22.60;52.00;;;;;;5034939;28;20171;-75
2022/06/16 11:23:44;;;;;;;1.85;1.40;;;22.60;52.60;;;;;;5051317;28;20235;-74
2022/06/16 11:26:20;;;;;;;2.30;1.88;;;22.60;52.00;;;;;;5051729;28;20207;-74
2022/06/16 11:28:46;;;;;;;2.45;1.65;;;22.60;52.00;;;;;;5052018;28;20635;-74
2022/06/16 11:31:18;;;;;;;4.15;1.20;;;22.60;51.90;;;;;;5052585;28;20661;-73
2022/06/16 11:37:05;;;;;;;3.70;1.67;;;22.60;51.90;;;;;;5052122;28;20210;-72
2022/06/16 11:40:04;;;;;;;2.95;1.67;;;22.70;51.90;;;;;;5051555;28;20543;-72
2022/06/16 11:42:57;;;;;;;2.60;1.65;;;22.60;51.90;;;;;;5052279;28;20223;-72
2022/06/16 11:45:57;;;;;;;3.17;1.77;;;22.70;51.90;;;;;;5051138;28;20171;-73
2022/06/16 11:48:40;;;;;;;5.13;1.73;;;22.70;51.90;;;;;;5052172;28;20583;-74
2022/06/16 11:51:30;;;;;;;3.38;1.63;;;22.70;51.90;;;;;;5035619;28;20189;-74
2022/06/16 11:54:10;;;;;;;4.50;1.77;;;22.70;51.80;;;;;;5033677;28;20687;-74
2022/06/16 11:56:48;;;;;;;2.28;1.65;;;22.70;51.90;;;;;;5050489;28;20197;-72
2022/06/16 11:59:20;;;;;;;2.42;1.58;;;22.70;51.80;;;;;;5050790;28;20179;-72
2022/06/16 12:01:48;;;;;;;3.20;2.25;;;22.70;51.80;;;;;;5049584;28;20783;-72
2022/06/16 12:04:28;;;;;;;1.52;1.40;;;22.70;51.80;;;;;;5051808;28;20230;-72
2022/06/16 12:07:31;;;;;;;2.13;1.40;;;22.70;51.80;;;;;;5049666;28;20171;-72
2022/06/16 12:10:05;;;;;;;2.55;1.75;;;22.70;51.80;;;;;;5051493;28;20178;-75
2022/06/16 12:13:05;;;;;;;3.13;1.77;;;22.70;51.80;;;;;;5052203;28;20337;-74
2022/06/16 12:15:55;;;;;;;1.42;1.33;;;22.70;51.80;;;;;;5051239;28;20175;-74
2022/06/16 12:18:39;;;;;;;1.65;1.45;;;22.70;51.70;;;;;;5044645;28;20183;-74
2022/06/16 12:21:32;;;;;;;3.35;1.77;;;22.70;51.70;;;;;;5049881;28;20221;-73
2022/06/16 12:24:21;;;;;;;3.20;1.60;;;22.70;51.70;;;;;;5051508;28;20196;-73
2022/06/16 12:27:05;;;;;;;1.85;1.60;;;22.70;51.70;;;;;;5035940;28;20171;-74
2022/06/16 12:29:50;;;;;;;2.08;1.50;;;22.70;51.60;;;;;;5050002;28;20186;-72
2022/06/16 12:32:28;;;;;;;4.18;1.80;;;22.80;51.50;;;;;;5051639;28;20174;-72
2022/06/16 12:35:05;;;;;;;1.70;1.60;;;22.80;51.40;;;;;;5050582;28;20277;-71
2022/06/16 12:37:37;;;;;;;2.33;1.63;;;22.80;51.40;;;;;;5051845;28;20226;-71
2022/06/16 12:40:13;;;;;;;2.17;1.60;;;22.90;51.40;;;;;;5050394;28;20203;-72
2022/06/16 12:42:42;;;;;;;3.15;1.80;;;22.90;51.20;;;;;;5049390;28;20209;-72
2022/06/16 12:45:14;;;;;;;2.58;1.60;;;22.90;51.20;;;;;;5034234;28;20225;-72
2022/06/16 12:47:48;;;;;;;3.35;1.63;;;22.90;51.20;;;;;;5033995;28;20203;-72
2022/06/16 12:50:21;;;;;;;2.30;2.10;;;22.90;51.20;;;;;;5034175;28;20182;-73
2022/06/16 12:52:54;;;;;;;2.35;1.60;;;22.90;51.20;;;;;;5033818;28;20257;-74
2022/06/16 12:55:24;;;;;;;3.10;1.33;;;23.00;51.10;;;;;;5050207;28;20178;-72
2022/06/16 12:57:59;;;;;;;1.70;1.60;;;23.00;51.10;;;;;;5032727;28;20638;-72
2022/06/16 13:00:30;;;;;;;1.90;1.65;;;23.00;51.10;;;;;;5034086;28;20221;-73
2022/06/16 13:03:01;;;;;;;2.40;1.80;;;23.10;51.00;;;;;;5033398;28;20295;-72
2022/06/16 13:05:26;;;;;;;3.13;1.75;;;23.10;50.90;;;;;;5037233;28;20195;-72
2022/06/16 13:07:53;;;;;;;2.97;1.90;;;23.10;50.80;;;;;;5036988;28;20669;-72
2022/06/16 13:10:18;;;;;;;2.08;1.70;;;23.10;51.40;;;;;;5054312;28;20948;-73
2022/06/16 13:12:54;;;;;;;3.88;1.70;;;23.20;50.70;;;;;;5054636;28;20179;-74
2022/06/16 13:15:31;;;;;;;2.38;1.70;;;23.20;50.60;;;;;;5053812;28;20182;-73
2022/06/16 13:18:15;;;;;;;2.20;2.00;;;23.20;50.50;;;;;;5052860;28;20699;-73
2022/06/16 13:20:44;;;;;;;1.63;1.52;;;23.30;50.50;;;;;;5053590;28;20176;-74
2022/06/16 13:23:36;;;;;;;3.22;1.90;;;23.30;50.40;;;;;;5037441;28;20211;-73
2022/06/16 13:26:18;;;;;;;2.45;1.75;;;23.40;50.40;;;;;;5054172;28;20598;-73
2022/06/16 13:29:00;;;;;;;2.95;1.73;;;23.40;50.30;;;;;;5053154;28;20244;-73
2022/06/16 13:31:29;;;;;;;2.00;1.65;;;23.40;50.30;;;;;;5052685;28;20186;-72